createdAt,value
2016-03-10T00:00:13.450Z,0
2016-03-10T00:01:13.423Z,0
2016-03-10T00:02:13.378Z,0
2016-03-10T00:03:13.428Z,0
2016-03-10T00:04:13.367Z,0
2016-03-10T00:05:13.417Z,0
2016-03-10T00:06:13.348Z,0
2016-03-10T00:07:13.351Z,0
2016-03-10T00:08:13.369Z,0
2016-03-10T00:09:13.340Z,0
2016-03-10T00:10:13.343Z,0
2016-03-10T00:11:13.314Z,0
2016-03-10T00:12:13.302Z,0
2016-03-10T00:13:13.319Z,0
2016-03-10T00:14:13.307Z,0
2016-03-10T00:15:13.310Z,0
2016-03-10T00:16:13.297Z,0
2016-03-10T00:17:13.268Z,0
2016-03-10T00:18:13.272Z,0
2016-03-10T00:19:13.274Z,0
2016-03-10T00:20:13.277Z,0
2016-03-10T00:21:13.247Z,0
2016-03-10T00:22:13.250Z,0
2016-03-10T00:23:13.252Z,0
2016-03-10T00:24:13.256Z,0
2016-03-10T00:25:13.274Z,0
2016-03-10T00:26:13.246Z,0
2016-03-10T00:27:13.232Z,0
2016-03-10T00:28:13.235Z,0
2016-03-10T00:29:13.082Z,0
2016-03-10T00:30:13.115Z,0
2016-03-10T00:31:13.041Z,0
2016-03-10T00:32:12.892Z,0
2016-03-10T00:33:13.196Z,0
2016-03-10T00:34:13.152Z,0
2016-03-10T00:35:13.217Z,0
2016-03-10T00:36:13.142Z,0
2016-03-10T00:37:13.161Z,0
2016-03-10T00:38:13.169Z,0
2016-03-10T00:39:13.109Z,0
2016-03-10T00:40:13.159Z,0
2016-03-10T00:41:13.098Z,0
2016-03-10T00:42:13.118Z,0
2016-03-10T00:43:13.073Z,0
2016-03-10T00:44:13.092Z,0
2016-03-10T00:45:13.157Z,0
2016-03-10T00:46:13.066Z,0
2016-03-10T00:47:13.068Z,0
2016-03-10T00:48:13.056Z,0
2016-03-10T00:49:13.042Z,0
2016-03-10T00:50:13.076Z,0
2016-03-10T00:51:13.033Z,0
2016-03-10T00:52:13.036Z,0
2016-03-10T00:53:13.023Z,0
2016-03-10T00:54:13.009Z,0
2016-03-10T00:55:13.121Z,0
2016-03-10T00:56:12.999Z,0
2016-03-10T00:57:13.002Z,0
2016-03-10T00:58:13.019Z,0
2016-03-10T00:59:12.976Z,0
2016-03-10T01:00:13.057Z,0
2016-03-10T01:01:13.028Z,0
2016-03-10T01:02:12.968Z,0
2016-03-10T01:03:12.971Z,0
2016-03-10T01:04:12.942Z,0
2016-03-10T01:05:13.008Z,0
2016-03-10T01:06:12.932Z,0
2016-03-10T01:07:12.919Z,0
2016-03-10T01:08:12.937Z,0
2016-03-10T01:09:12.909Z,0
2016-03-10T01:10:12.943Z,0
2016-03-10T01:11:12.883Z,0
2016-03-10T01:12:12.901Z,0
2016-03-10T01:13:12.888Z,0
2016-03-10T01:14:12.876Z,0
2016-03-10T01:15:12.956Z,0
2016-03-10T01:16:12.865Z,0
2016-03-10T01:17:12.867Z,0
2016-03-10T01:18:12.870Z,0
2016-03-10T01:19:12.842Z,0
2016-03-10T01:20:12.939Z,0
2016-03-10T01:21:12.847Z,0
2016-03-10T01:22:12.850Z,0
2016-03-10T01:23:12.852Z,0
2016-03-10T01:24:12.825Z,0
2016-03-10T01:25:12.842Z,0
2016-03-10T01:26:12.798Z,0
2016-03-10T01:27:12.801Z,0
2016-03-10T01:28:12.804Z,0
2016-03-10T01:29:12.806Z,0
2016-03-10T01:30:12.825Z,0
2016-03-10T01:31:12.796Z,0
2016-03-10T01:32:12.768Z,0
2016-03-10T01:33:12.739Z,0
2016-03-10T01:34:12.789Z,0
2016-03-10T01:35:12.744Z,0
2016-03-10T01:36:12.731Z,0
2016-03-10T01:37:12.734Z,0
2016-03-10T01:38:12.737Z,0
2016-03-10T01:39:12.755Z,0
2016-03-10T01:40:12.679Z,0
2016-03-10T01:41:15.714Z,0
2016-03-10T01:42:12.716Z,0
2016-03-10T01:43:12.501Z,0
2016-03-10T01:44:12.706Z,0
2016-03-10T01:45:12.662Z,0
2016-03-10T01:46:12.680Z,0
2016-03-10T01:47:12.668Z,0
2016-03-10T01:48:12.654Z,0
2016-03-10T01:49:12.689Z,0
2016-03-10T01:50:12.628Z,0
2016-03-10T01:51:12.647Z,0
2016-03-10T01:52:12.587Z,0
2016-03-10T01:53:12.590Z,0
2016-03-10T01:54:12.639Z,0
2016-03-10T01:55:12.642Z,0
2016-03-10T01:56:12.645Z,0
2016-03-10T01:57:12.569Z,0
2016-03-10T01:58:12.541Z,0
2016-03-10T01:59:12.558Z,0
2016-03-10T02:00:12.546Z,0
2016-03-10T02:01:12.549Z,0
2016-03-10T02:02:12.551Z,0
2016-03-10T02:03:12.507Z,0
2016-03-10T02:04:12.510Z,0
2016-03-10T02:05:12.512Z,0
2016-03-10T02:06:12.360Z,0
2016-03-10T02:07:12.487Z,0
2016-03-10T02:08:12.474Z,0
2016-03-10T02:09:12.508Z,0
2016-03-10T02:10:12.464Z,0
2016-03-10T02:11:12.466Z,0
2016-03-10T02:12:12.438Z,0
2016-03-10T02:13:12.440Z,0
2016-03-10T02:14:12.427Z,0
2016-03-10T02:15:12.446Z,0
2016-03-10T02:16:12.464Z,0
2016-03-10T02:17:12.404Z,0
2016-03-10T02:18:12.422Z,0
2016-03-10T02:19:12.394Z,0
2016-03-10T02:20:12.397Z,0
2016-03-10T02:21:12.384Z,0
2016-03-10T02:22:12.386Z,0
2016-03-10T02:23:12.421Z,0
2016-03-10T02:24:12.361Z,0
2016-03-10T02:25:12.395Z,0
2016-03-10T02:26:12.350Z,0
2016-03-10T02:27:12.353Z,0
2016-03-10T02:28:12.339Z,0
2016-03-10T02:29:12.328Z,0
2016-03-10T02:30:12.345Z,0
2016-03-10T02:31:12.333Z,0
2016-03-10T02:32:12.382Z,0
2016-03-10T02:33:12.275Z,0
2016-03-10T02:34:12.310Z,0
2016-03-10T02:35:12.265Z,0
2016-03-10T02:36:12.283Z,0
2016-03-10T02:37:12.302Z,0
2016-03-10T02:38:12.258Z,0
2016-03-10T02:39:12.260Z,0
2016-03-10T02:40:12.357Z,0
2016-03-10T02:41:12.249Z,0
2016-03-10T02:42:12.221Z,0
2016-03-10T02:43:12.224Z,0
2016-03-10T02:44:12.258Z,0
2016-03-10T02:45:12.229Z,0
2016-03-10T02:46:12.232Z,0
2016-03-10T02:47:12.203Z,0
2016-03-10T02:48:12.035Z,0
2016-03-10T02:49:12.209Z,0
2016-03-10T02:50:12.181Z,0
2016-03-10T02:51:12.183Z,0
2016-03-10T02:52:12.171Z,0
2016-03-10T02:53:12.142Z,0
2016-03-10T02:54:12.176Z,0
2016-03-10T02:55:12.131Z,0
2016-03-10T02:56:12.150Z,0
2016-03-10T02:57:12.106Z,0
2016-03-10T02:58:12.109Z,0
2016-03-10T02:59:11.986Z,0
2016-03-10T03:00:12.004Z,0
2016-03-10T03:01:12.100Z,0
2016-03-10T03:02:12.072Z,0
2016-03-10T03:03:12.091Z,0
2016-03-10T03:04:12.077Z,0
2016-03-10T03:05:12.064Z,0
2016-03-10T03:06:11.880Z,0
2016-03-10T03:07:12.039Z,0
2016-03-10T03:08:12.057Z,0
2016-03-10T03:09:12.013Z,0
2016-03-10T03:10:12.046Z,0
2016-03-10T03:11:12.002Z,0
2016-03-10T03:12:11.990Z,0
2016-03-10T03:13:12.040Z,0
2016-03-10T03:14:11.995Z,0
2016-03-10T03:15:12.013Z,0
2016-03-10T03:16:11.985Z,0
2016-03-10T03:17:11.988Z,0
2016-03-10T03:18:11.959Z,0
2016-03-10T03:19:11.962Z,0
2016-03-10T03:20:11.965Z,0
2016-03-10T03:21:11.937Z,0
2016-03-10T03:22:11.970Z,0
2016-03-10T03:23:11.926Z,0
2016-03-10T03:24:11.912Z,0
2016-03-10T03:25:11.947Z,0
2016-03-10T03:26:11.903Z,0
2016-03-10T03:27:11.921Z,0
2016-03-10T03:28:11.939Z,0
2016-03-10T03:29:11.878Z,0
2016-03-10T03:30:11.881Z,0
2016-03-10T03:31:11.713Z,0
2016-03-10T03:32:11.872Z,0
2016-03-10T03:33:11.858Z,0
2016-03-10T03:34:11.846Z,0
2016-03-10T03:35:11.864Z,0
2016-03-10T03:36:11.820Z,0
2016-03-10T03:37:11.854Z,0
2016-03-10T03:38:11.793Z,0
2016-03-10T03:39:11.812Z,0
2016-03-10T03:40:11.799Z,0
2016-03-10T03:41:11.786Z,0
2016-03-10T03:42:11.804Z,0
2016-03-10T03:43:11.807Z,0
2016-03-10T03:44:11.778Z,0
2016-03-10T03:45:11.765Z,0
2016-03-10T03:46:11.753Z,0
2016-03-10T03:47:11.756Z,0
2016-03-10T03:48:11.726Z,0
2016-03-10T03:49:11.762Z,0
2016-03-10T03:50:11.701Z,0
2016-03-10T03:51:11.720Z,0
2016-03-10T03:52:11.722Z,0
2016-03-10T03:53:11.709Z,0
2016-03-10T03:54:11.696Z,0
2016-03-10T03:55:11.699Z,0
2016-03-10T03:56:11.701Z,0
2016-03-10T03:57:11.658Z,0
2016-03-10T03:58:11.722Z,0
2016-03-10T03:59:11.647Z,0
2016-03-10T04:00:11.650Z,0
2016-03-10T04:01:11.653Z,0
2016-03-10T04:02:11.624Z,0
2016-03-10T04:03:11.611Z,0
2016-03-10T04:04:11.661Z,0
2016-03-10T04:05:11.664Z,0
2016-03-10T04:06:11.682Z,0
2016-03-10T04:07:11.575Z,0
2016-03-10T04:08:11.577Z,0
2016-03-10T04:09:11.580Z,0
2016-03-10T04:10:11.568Z,0
2016-03-10T04:11:11.585Z,0
2016-03-10T04:12:11.541Z,0
2016-03-10T04:13:11.590Z,0
2016-03-10T04:14:11.563Z,0
2016-03-10T04:15:11.534Z,0
2016-03-10T04:16:11.365Z,0
2016-03-10T04:17:11.523Z,0
2016-03-10T04:18:11.480Z,0
2016-03-10T04:19:11.513Z,0
2016-03-10T04:20:11.516Z,0
2016-03-10T04:21:11.535Z,0
2016-03-10T04:22:11.476Z,0
2016-03-10T04:23:11.462Z,0
2016-03-10T04:24:11.465Z,0
2016-03-10T04:25:11.437Z,0
2016-03-10T04:26:11.486Z,0
2016-03-10T04:27:11.425Z,0
2016-03-10T04:28:11.459Z,0
2016-03-10T04:29:11.415Z,0
2016-03-10T04:30:11.418Z,0
2016-03-10T04:31:11.389Z,0
2016-03-10T04:32:11.392Z,0
2016-03-10T04:33:11.411Z,0
2016-03-10T04:34:11.367Z,0
2016-03-10T04:35:11.400Z,0
2016-03-10T04:36:11.371Z,0
2016-03-10T04:37:11.343Z,0
2016-03-10T04:38:11.346Z,0
2016-03-10T04:39:11.333Z,0
2016-03-10T04:40:11.382Z,0
2016-03-10T04:41:11.322Z,0
2016-03-10T04:42:11.340Z,0
2016-03-10T04:43:11.202Z,0
2016-03-10T04:44:11.315Z,0
2016-03-10T04:45:11.349Z,0
2016-03-10T04:46:11.320Z,0
2016-03-10T04:47:11.292Z,0
2016-03-10T04:48:11.295Z,0
2016-03-10T04:49:11.298Z,0
2016-03-10T04:50:11.253Z,0
2016-03-10T04:51:11.240Z,0
2016-03-10T04:52:11.273Z,0
2016-03-10T04:53:11.246Z,0
2016-03-10T04:54:11.232Z,0
2016-03-10T04:55:11.204Z,0
2016-03-10T04:56:11.206Z,0
2016-03-10T04:57:11.272Z,0
2016-03-10T04:58:11.227Z,0
2016-03-10T04:59:11.184Z,0
2016-03-10T05:00:11.170Z,0
2016-03-10T05:01:11.158Z,0
2016-03-10T05:02:11.175Z,0
2016-03-10T05:03:11.163Z,0
2016-03-10T05:04:11.166Z,0
2016-03-10T05:05:11.136Z,0
2016-03-10T05:06:11.124Z,0
2016-03-10T05:07:11.142Z,0
2016-03-10T05:08:11.114Z,0
2016-03-10T05:09:11.116Z,0
2016-03-10T05:10:11.104Z,0
2016-03-10T05:11:11.107Z,0
2016-03-10T05:12:11.125Z,0
2016-03-10T05:13:11.144Z,0
2016-03-10T05:14:11.083Z,0
2016-03-10T05:15:11.086Z,0
2016-03-10T05:16:11.057Z,0
2016-03-10T05:17:11.060Z,0
2016-03-10T05:18:11.016Z,0
2016-03-10T05:19:11.018Z,0
2016-03-10T05:20:11.052Z,0
2016-03-10T05:21:11.009Z,0
2016-03-10T05:22:11.042Z,0
2016-03-10T05:23:11.014Z,0
2016-03-10T05:24:11.032Z,0
2016-03-10T05:25:11.097Z,0
2016-03-10T05:26:11.037Z,0
2016-03-10T05:27:10.993Z,0
2016-03-10T05:28:10.856Z,0
2016-03-10T05:29:10.983Z,0
2016-03-10T05:30:10.939Z,0
2016-03-10T05:31:10.957Z,0
2016-03-10T05:32:10.975Z,0
2016-03-10T05:33:10.916Z,0
2016-03-10T05:34:10.949Z,0
2016-03-10T05:35:10.921Z,0
2016-03-10T05:36:10.924Z,0
2016-03-10T05:37:10.941Z,0
2016-03-10T05:38:10.882Z,0
2016-03-10T05:39:10.900Z,0
2016-03-10T05:40:10.855Z,0
2016-03-10T05:41:10.858Z,0
2016-03-10T05:42:10.877Z,0
2016-03-10T05:43:10.880Z,5
2016-03-10T05:44:10.883Z,5
2016-03-10T05:45:10.838Z,5
2016-03-10T05:46:10.826Z,5
2016-03-10T05:47:10.844Z,5
2016-03-10T05:48:10.800Z,5
2016-03-10T05:49:10.802Z,5
2016-03-10T05:50:10.821Z,10
2016-03-10T05:51:10.761Z,10
2016-03-10T05:52:10.810Z,10
2016-03-10T05:53:10.751Z,10
2016-03-10T05:54:10.784Z,10
2016-03-10T05:55:10.756Z,15
2016-03-10T05:56:10.728Z,15
2016-03-10T05:57:10.730Z,15
2016-03-10T05:58:10.733Z,15
2016-03-10T05:59:10.720Z,20
2016-03-10T06:00:10.722Z,20
2016-03-10T06:01:10.694Z,20
2016-03-10T06:02:10.680Z,20
2016-03-10T06:03:10.699Z,25
2016-03-10T06:04:10.702Z,25
2016-03-10T06:05:10.752Z,25
2016-03-10T06:06:10.659Z,25
2016-03-10T06:07:10.661Z,30
2016-03-10T06:08:10.492Z,30
2016-03-10T06:09:10.636Z,30
2016-03-10T06:10:10.639Z,35
2016-03-10T06:11:10.641Z,35
2016-03-10T06:12:10.611Z,35
2016-03-10T06:13:10.614Z,40
2016-03-10T06:14:10.602Z,40
2016-03-10T06:15:10.589Z,40
2016-03-10T06:16:10.607Z,45
2016-03-10T06:17:10.578Z,45
2016-03-10T06:18:10.581Z,45
2016-03-10T06:19:10.600Z,45
2016-03-10T06:20:10.555Z,50
2016-03-10T06:21:10.543Z,50
2016-03-10T06:22:10.529Z,50
2016-03-10T06:23:10.516Z,55
2016-03-10T06:24:10.535Z,55
2016-03-10T06:25:10.522Z,55
2016-03-10T06:26:10.493Z,60
2016-03-10T06:27:10.496Z,60
2016-03-10T06:28:10.482Z,60
2016-03-10T06:29:10.470Z,65
2016-03-10T06:30:10.488Z,65
2016-03-10T06:31:10.320Z,65
2016-03-10T06:32:10.462Z,65
2016-03-10T06:33:10.451Z,70
2016-03-10T06:34:10.515Z,70
2016-03-10T06:35:13.456Z,70
2016-03-10T06:36:10.442Z,70
2016-03-10T06:37:10.414Z,75
2016-03-10T06:38:10.416Z,75
2016-03-10T06:39:10.435Z,75
2016-03-10T06:40:10.390Z,75
2016-03-10T06:41:10.393Z,75
2016-03-10T06:42:10.380Z,75
2016-03-10T06:43:10.383Z,80
2016-03-10T06:44:10.386Z,80
2016-03-10T06:45:10.451Z,80
2016-03-10T06:46:10.453Z,85
2016-03-10T06:47:10.363Z,85
2016-03-10T06:48:10.366Z,85
2016-03-10T06:49:10.353Z,85
2016-03-10T06:50:10.355Z,90
2016-03-10T06:51:10.326Z,90
2016-03-10T06:52:10.314Z,90
2016-03-10T06:53:10.347Z,95
2016-03-10T06:54:10.303Z,95
2016-03-10T06:55:10.321Z,95
2016-03-10T06:56:10.324Z,95
2016-03-10T06:57:10.279Z,95
2016-03-10T06:58:10.314Z,100
2016-03-10T06:59:10.270Z,100
2016-03-10T07:00:10.273Z,100
2016-03-10T07:01:10.291Z,100
2016-03-10T07:02:10.341Z,105
2016-03-10T07:03:10.265Z,105
2016-03-10T07:04:10.252Z,105
2016-03-10T07:05:10.082Z,110
2016-03-10T07:06:10.210Z,110
2016-03-10T07:07:10.213Z,110
2016-03-10T07:08:10.216Z,115
2016-03-10T07:09:10.203Z,115
2016-03-10T07:10:10.205Z,120
2016-03-10T07:11:10.192Z,120
2016-03-10T07:12:10.211Z,120
2016-03-10T07:13:10.198Z,120
2016-03-10T07:14:10.200Z,125
2016-03-10T07:15:10.204Z,125
2016-03-10T07:16:10.191Z,125
2016-03-10T07:17:10.194Z,125
2016-03-10T07:18:10.180Z,130
2016-03-10T07:19:10.183Z,130
2016-03-10T07:20:10.201Z,130
2016-03-10T07:21:10.158Z,135
2016-03-10T07:22:10.144Z,135
2016-03-10T07:23:10.131Z,135
2016-03-10T07:24:10.118Z,140
2016-03-10T07:25:10.121Z,140
2016-03-10T07:26:10.155Z,140
2016-03-10T07:27:10.095Z,140
2016-03-10T07:28:10.113Z,140
2016-03-10T07:29:10.132Z,145
2016-03-10T07:30:10.088Z,150
2016-03-10T07:31:10.121Z,155
2016-03-10T07:32:10.062Z,155
2016-03-10T07:33:10.079Z,160
2016-03-10T07:34:10.068Z,160
2016-03-10T07:35:10.070Z,165
2016-03-10T07:36:10.088Z,165
2016-03-10T07:37:10.043Z,165
2016-03-10T07:38:10.078Z,165
2016-03-10T07:39:10.049Z,170
2016-03-10T07:40:10.051Z,170
2016-03-10T07:41:10.054Z,170
2016-03-10T07:42:10.057Z,170
2016-03-10T07:43:10.045Z,170
2016-03-10T07:44:10.031Z,170
2016-03-10T07:45:10.050Z,175
2016-03-10T07:46:10.037Z,175
2016-03-10T07:47:10.034Z,175
2016-03-10T07:48:10.014Z,175
2016-03-10T07:49:10.026Z,175
2016-03-10T07:50:10.007Z,175
2016-03-10T07:51:10.004Z,180
2016-03-10T07:52:10.034Z,180
2016-03-10T07:53:10.019Z,180
2016-03-10T07:54:09.988Z,180
2016-03-10T07:55:10.019Z,180
2016-03-10T07:56:10.005Z,180
2016-03-10T07:57:10.037Z,180
2016-03-10T07:58:09.852Z,180
2016-03-10T07:59:10.260Z,180
2016-03-10T08:00:10.012Z,180
2016-03-10T08:01:10.014Z,180
2016-03-10T08:02:10.000Z,180
2016-03-10T08:03:10.019Z,180
2016-03-10T08:04:10.021Z,180
2016-03-10T08:05:10.023Z,180
2016-03-10T08:06:10.026Z,185
2016-03-10T08:07:10.028Z,185
2016-03-10T08:08:10.030Z,185
2016-03-10T08:09:10.033Z,185
2016-03-10T08:10:10.036Z,185
2016-03-10T08:11:10.023Z,185
2016-03-10T08:12:10.041Z,185
2016-03-10T08:13:10.028Z,185
2016-03-10T08:14:10.030Z,185
2016-03-10T08:15:10.065Z,185
2016-03-10T08:16:10.036Z,185
2016-03-10T08:17:10.039Z,185
2016-03-10T08:18:10.104Z,185
2016-03-10T08:19:10.028Z,185
2016-03-10T08:20:10.078Z,185
2016-03-10T08:21:10.049Z,185
2016-03-10T08:22:10.084Z,185
2016-03-10T08:23:10.071Z,185
2016-03-10T08:24:10.074Z,185
2016-03-10T08:25:10.091Z,185
2016-03-10T08:26:10.079Z,185
2016-03-10T08:27:10.097Z,180
2016-03-10T08:28:10.068Z,180
2016-03-10T08:29:10.102Z,180
2016-03-10T08:30:10.090Z,180
2016-03-10T08:31:10.077Z,180
2016-03-10T08:32:10.095Z,180
2016-03-10T08:33:10.082Z,180
2016-03-10T08:34:10.116Z,180
2016-03-10T08:35:09.978Z,180
2016-03-10T08:36:10.090Z,180
2016-03-10T08:37:10.123Z,180
2016-03-10T08:38:10.112Z,180
2016-03-10T08:39:09.957Z,180
2016-03-10T08:40:09.992Z,180
2016-03-10T08:41:10.088Z,180
2016-03-10T08:42:10.122Z,180
2016-03-10T08:43:10.093Z,180
2016-03-10T08:44:10.112Z,185
2016-03-10T08:45:10.115Z,185
2016-03-10T08:46:10.101Z,185
2016-03-10T08:47:10.072Z,185
2016-03-10T08:48:10.138Z,185
2016-03-10T08:49:10.109Z,185
2016-03-10T08:50:10.096Z,185
2016-03-10T08:51:10.130Z,185
2016-03-10T08:52:10.102Z,185
2016-03-10T08:53:10.120Z,185
2016-03-10T08:54:10.092Z,185
2016-03-10T08:55:10.078Z,185
2016-03-10T08:56:10.066Z,185
2016-03-10T08:57:10.084Z,185
2016-03-10T08:58:10.118Z,195
2016-03-10T08:59:09.995Z,195
2016-03-10T09:00:10.076Z,190
2016-03-10T09:01:10.079Z,190
2016-03-10T09:02:10.066Z,190
2016-03-10T09:03:10.084Z,190
2016-03-10T09:04:10.103Z,190
2016-03-10T09:05:10.090Z,190
2016-03-10T09:06:10.062Z,190
2016-03-10T09:07:10.075Z,190
2016-03-10T09:08:10.078Z,190
2016-03-10T09:09:10.066Z,190
2016-03-10T09:10:10.036Z,190
2016-03-10T09:11:10.086Z,195
2016-03-10T09:12:10.089Z,190
2016-03-10T09:13:10.061Z,190
2016-03-10T09:14:10.094Z,190
2016-03-10T09:15:10.081Z,190
2016-03-10T09:16:10.069Z,190
2016-03-10T09:17:10.040Z,190
2016-03-10T09:18:10.074Z,190
2016-03-10T09:19:10.060Z,190
2016-03-10T09:20:10.063Z,195
2016-03-10T09:21:10.098Z,195
2016-03-10T09:22:10.037Z,195
2016-03-10T09:23:10.057Z,195
2016-03-10T09:24:10.059Z,195
2016-03-10T09:25:10.030Z,195
2016-03-10T09:26:10.048Z,195
2016-03-10T09:27:10.036Z,195
2016-03-10T09:28:10.039Z,195
2016-03-10T09:29:10.088Z,195
2016-03-10T09:30:10.013Z,195
2016-03-10T09:31:10.047Z,195
2016-03-10T09:32:09.986Z,195
2016-03-10T09:33:10.005Z,195
2016-03-10T09:34:10.008Z,195
2016-03-10T09:35:10.010Z,195
2016-03-10T09:36:10.013Z,195
2016-03-10T09:37:10.031Z,195
2016-03-10T09:38:10.003Z,195
2016-03-10T09:39:10.068Z,195
2016-03-10T09:40:10.025Z,200
2016-03-10T09:41:09.980Z,205
2016-03-10T09:42:09.998Z,200
2016-03-10T09:43:10.016Z,200
2016-03-10T09:44:10.019Z,200
2016-03-10T09:45:09.991Z,200
2016-03-10T09:46:09.993Z,200
2016-03-10T09:47:09.996Z,200
2016-03-10T09:48:10.014Z,200
2016-03-10T09:49:09.985Z,200
2016-03-10T09:50:10.024Z,200
2016-03-10T09:51:09.965Z,200
2016-03-10T09:52:09.968Z,200
2016-03-10T09:53:09.985Z,200
2016-03-10T09:54:09.972Z,200
2016-03-10T09:55:09.960Z,200
2016-03-10T09:56:09.993Z,200
2016-03-10T09:57:09.965Z,200
2016-03-10T09:58:09.984Z,200
2016-03-10T09:59:10.034Z,205
2016-03-10T10:00:10.020Z,200
2016-03-10T10:01:09.960Z,200
2016-03-10T10:02:09.948Z,200
2016-03-10T10:03:09.997Z,200
2016-03-10T10:04:09.953Z,200
2016-03-10T10:05:09.971Z,200
2016-03-10T10:06:09.942Z,200
2016-03-10T10:07:09.961Z,200
2016-03-10T10:08:09.932Z,200
2016-03-10T10:09:09.935Z,200
2016-03-10T10:10:10.016Z,200
2016-03-10T10:11:09.940Z,200
2016-03-10T10:12:09.958Z,200
2016-03-10T10:13:09.930Z,200
2016-03-10T10:14:09.979Z,200
2016-03-10T10:15:10.888Z,200
2016-03-10T10:16:09.937Z,200
2016-03-10T10:17:09.972Z,200
2016-03-10T10:18:09.974Z,200
2016-03-10T10:19:09.930Z,200
2016-03-10T10:20:09.949Z,200
2016-03-10T10:21:09.935Z,200
2016-03-10T10:22:09.938Z,200
2016-03-10T10:23:09.957Z,200
2016-03-10T10:24:09.929Z,200
2016-03-10T10:25:09.962Z,200
2016-03-10T10:26:09.933Z,200
2016-03-10T10:27:09.936Z,200
2016-03-10T10:28:09.954Z,200
2016-03-10T10:29:09.942Z,200
2016-03-10T10:30:09.945Z,200
2016-03-10T10:31:09.962Z,200
2016-03-10T10:32:09.934Z,200
2016-03-10T10:33:09.937Z,200
2016-03-10T10:34:09.955Z,200
2016-03-10T10:35:09.927Z,200
2016-03-10T10:36:09.945Z,200
2016-03-10T10:37:09.947Z,200
2016-03-10T10:38:09.935Z,200
2016-03-10T10:39:09.922Z,200
2016-03-10T10:40:09.924Z,200
2016-03-10T10:41:09.943Z,200
2016-03-10T10:42:09.930Z,200
2016-03-10T10:43:09.932Z,200
2016-03-10T10:44:09.966Z,200
2016-03-10T10:45:09.938Z,200
2016-03-10T10:46:09.940Z,200
2016-03-10T10:47:09.944Z,200
2016-03-10T10:48:09.915Z,200
2016-03-10T10:49:09.949Z,200
2016-03-10T10:50:09.951Z,200
2016-03-10T10:51:09.766Z,200
2016-03-10T10:52:09.926Z,200
2016-03-10T10:53:09.912Z,200
2016-03-10T10:54:09.899Z,200
2016-03-10T10:55:09.918Z,200
2016-03-10T10:56:09.905Z,200
2016-03-10T10:57:09.907Z,200
2016-03-10T10:58:09.910Z,200
2016-03-10T10:59:09.850Z,200
2016-03-10T11:00:09.915Z,200
2016-03-10T11:01:09.918Z,200
2016-03-10T11:02:09.921Z,200
2016-03-10T11:03:09.909Z,200
2016-03-10T11:04:09.911Z,200
2016-03-10T11:05:09.914Z,195
2016-03-10T11:06:09.916Z,195
2016-03-10T11:07:09.919Z,195
2016-03-10T11:08:09.921Z,195
2016-03-10T11:09:09.909Z,190
2016-03-10T11:10:09.927Z,195
2016-03-10T11:11:09.913Z,195
2016-03-10T11:12:09.916Z,195
2016-03-10T11:13:09.919Z,195
2016-03-10T11:14:09.938Z,200
2016-03-10T11:15:09.925Z,200
2016-03-10T11:16:10.255Z,200
2016-03-10T11:17:09.930Z,200
2016-03-10T11:18:09.949Z,200
2016-03-10T11:19:09.935Z,200
2016-03-10T11:20:09.782Z,200
2016-03-10T11:21:09.909Z,200
2016-03-10T11:22:09.896Z,195
2016-03-10T11:23:09.915Z,200
2016-03-10T11:24:09.902Z,200
2016-03-10T11:25:09.904Z,195
2016-03-10T11:26:09.907Z,195
2016-03-10T11:27:09.910Z,195
2016-03-10T11:28:09.913Z,195
2016-03-10T11:29:09.915Z,195
2016-03-10T11:30:09.903Z,195
2016-03-10T11:31:09.921Z,195
2016-03-10T11:32:09.908Z,195
2016-03-10T11:33:09.895Z,200
2016-03-10T11:34:09.914Z,200
2016-03-10T11:35:09.931Z,195
2016-03-10T11:36:09.903Z,195
2016-03-10T11:37:09.906Z,195
2016-03-10T11:38:09.893Z,195
2016-03-10T11:39:09.911Z,195
2016-03-10T11:40:09.930Z,195
2016-03-10T11:41:09.916Z,195
2016-03-10T11:42:09.935Z,195
2016-03-10T11:43:09.938Z,195
2016-03-10T11:44:09.924Z,195
2016-03-10T11:45:09.911Z,195
2016-03-10T11:46:09.914Z,200
2016-03-10T11:47:09.916Z,200
2016-03-10T11:48:09.904Z,200
2016-03-10T11:49:09.907Z,195
2016-03-10T11:50:09.910Z,195
2016-03-10T11:51:09.896Z,195
2016-03-10T11:52:09.899Z,195
2016-03-10T11:53:09.918Z,195
2016-03-10T11:54:09.921Z,195
2016-03-10T11:55:09.923Z,195
2016-03-10T11:56:09.957Z,200
2016-03-10T11:57:09.944Z,200
2016-03-10T11:58:09.932Z,195
2016-03-10T11:59:09.903Z,195
2016-03-10T12:00:09.906Z,195
2016-03-10T12:01:09.940Z,195
2016-03-10T12:02:09.911Z,195
2016-03-10T12:03:09.914Z,195
2016-03-10T12:04:09.916Z,195
2016-03-10T12:05:09.904Z,195
2016-03-10T12:06:09.905Z,195
2016-03-10T12:07:09.909Z,195
2016-03-10T12:08:09.912Z,195
2016-03-10T12:09:09.913Z,195
2016-03-10T12:10:09.901Z,195
2016-03-10T12:11:09.919Z,195
2016-03-10T12:12:09.921Z,195
2016-03-10T12:13:09.924Z,195
2016-03-10T12:14:09.927Z,190
2016-03-10T12:15:09.930Z,190
2016-03-10T12:16:09.916Z,190
2016-03-10T12:17:09.764Z,190
2016-03-10T12:18:09.922Z,190
2016-03-10T12:19:09.925Z,190
2016-03-10T12:20:09.960Z,190
2016-03-10T12:21:09.196Z,190
2016-03-10T12:22:09.933Z,190
2016-03-10T12:23:09.921Z,190
2016-03-10T12:24:09.923Z,190
2016-03-10T12:25:09.957Z,190
2016-03-10T12:26:09.929Z,190
2016-03-10T12:27:09.962Z,190
2016-03-10T12:28:17.168Z,190
2016-03-10T12:29:09.937Z,190
2016-03-10T12:30:09.940Z,185
2016-03-10T12:31:09.942Z,190
2016-03-10T12:32:09.929Z,190
2016-03-10T12:33:09.948Z,190
2016-03-10T12:34:09.825Z,190
2016-03-10T12:35:09.937Z,190
2016-03-10T12:36:09.971Z,190
2016-03-10T12:37:09.926Z,190
2016-03-10T12:38:09.945Z,190
2016-03-10T12:39:09.948Z,190
2016-03-10T12:40:09.951Z,190
2016-03-10T12:41:09.953Z,190
2016-03-10T12:42:09.940Z,190
2016-03-10T12:43:09.975Z,190
2016-03-10T12:44:09.945Z,190
2016-03-10T12:45:09.948Z,190
2016-03-10T12:46:09.967Z,190
2016-03-10T12:47:09.938Z,185
2016-03-10T12:48:09.956Z,185
2016-03-10T12:49:09.974Z,185
2016-03-10T12:50:09.977Z,190
2016-03-10T12:51:09.933Z,185
2016-03-10T12:52:09.952Z,185
2016-03-10T12:53:09.955Z,185
2016-03-10T12:54:09.941Z,185
2016-03-10T12:55:10.022Z,185
2016-03-10T12:56:09.962Z,185
2016-03-10T12:57:10.012Z,185
2016-03-10T12:58:09.980Z,185
2016-03-10T12:59:09.982Z,185
2016-03-10T13:00:09.985Z,180
2016-03-10T13:01:09.973Z,180
2016-03-10T13:02:10.054Z,180
2016-03-10T13:03:09.963Z,180
2016-03-10T13:04:09.982Z,180
2016-03-10T13:05:09.953Z,180
2016-03-10T13:06:09.956Z,180
2016-03-10T13:07:09.973Z,185
2016-03-10T13:08:09.945Z,180
2016-03-10T13:09:10.214Z,185
2016-03-10T13:10:09.967Z,185
2016-03-10T13:11:09.969Z,180
2016-03-10T13:12:09.956Z,180
2016-03-10T13:13:09.974Z,180
2016-03-10T13:14:09.983Z,180
2016-03-10T13:15:09.971Z,180
2016-03-10T13:16:09.958Z,180
2016-03-10T13:17:10.008Z,180
2016-03-10T13:18:09.994Z,180
2016-03-10T13:19:09.982Z,180
2016-03-10T13:20:09.985Z,180
2016-03-10T13:21:09.971Z,180
2016-03-10T13:22:09.974Z,180
2016-03-10T13:23:09.961Z,175
2016-03-10T13:24:10.010Z,175
2016-03-10T13:25:09.966Z,175
2016-03-10T13:26:10.047Z,175
2016-03-10T13:27:09.957Z,175
2016-03-10T13:28:09.974Z,170
2016-03-10T13:29:10.024Z,175
2016-03-10T13:30:10.026Z,175
2016-03-10T13:31:09.981Z,175
2016-03-10T13:32:10.000Z,175
2016-03-10T13:33:09.972Z,175
2016-03-10T13:34:09.959Z,175
2016-03-10T13:35:10.039Z,180
2016-03-10T13:36:09.980Z,180
2016-03-10T13:37:09.999Z,180
2016-03-10T13:38:09.969Z,180
2016-03-10T13:39:09.988Z,180
2016-03-10T13:40:09.991Z,180
2016-03-10T13:41:09.978Z,180
2016-03-10T13:42:10.012Z,180
2016-03-10T13:43:10.000Z,180
2016-03-10T13:44:09.986Z,180
2016-03-10T13:45:09.974Z,180
2016-03-10T13:46:09.977Z,180
2016-03-10T13:47:09.994Z,180
2016-03-10T13:48:09.966Z,180
2016-03-10T13:49:09.999Z,180
2016-03-10T13:50:10.002Z,180
2016-03-10T13:51:09.989Z,175
2016-03-10T13:52:10.008Z,175
2016-03-10T13:53:10.026Z,175
2016-03-10T13:54:10.044Z,175
2016-03-10T13:55:10.001Z,175
2016-03-10T13:56:10.018Z,175
2016-03-10T13:57:10.006Z,180
2016-03-10T13:58:22.745Z,180
2016-03-10T13:59:10.026Z,175
2016-03-10T14:00:10.014Z,170
2016-03-10T14:01:10.047Z,170
2016-03-10T14:02:10.003Z,175
2016-03-10T14:03:10.006Z,175
2016-03-10T14:04:10.025Z,175
2016-03-10T14:05:10.012Z,175
2016-03-10T14:06:10.092Z,175
2016-03-10T14:07:10.013Z,175
2016-03-10T14:08:10.016Z,175
2016-03-10T14:09:10.019Z,175
2016-03-10T14:10:10.021Z,175
2016-03-10T14:11:10.040Z,175
2016-03-10T14:12:10.010Z,170